Batumi International Airport
UGSB : rendu visible

Aérodrome :











RETROUVEZ-NOUS SUR...

 
LOGIN :

S'inscrire | Disclaimer

   EN    FR    IT 

 









Légende :    VFR   VFR Marginal   IFR   IFR Intensif   IFR Très Intensif
Visi : 
Plafond : 
>= 8 km
>= 3000ft
5 à 8 km
1000 à 3000 ft
1500m à 5 km
500 à 1000 ft
800 à 1500m
200 à 500 ft
< 800m
< 200 ft
Symboles :   Orages  Brouillard  Fortes neiges  Fortes précipitations  Vent > 20 kt







- Altitude de l'aérodrome : 105 ft
- Code IATA : BUS


UGSB - Batumi International

DERNIER METAR :
  • 250130Z AUTO 14010KT CAVOK 04/02 Q1023 R13/70D NOSIG

METARs EXPIRÉS :
  • 250100Z 13008KT CAVOK 03/02 Q1023 R13/70D NOSIG
  • 250030Z 13007KT CAVOK 03/02 Q1023 R13/CLRD70 NOSIG
  • 250000Z 14008KT CAVOK 04/02 Q1023 R13/CLRD70 NOSIG
  • 242330Z 14008KT CAVOK 04/02 Q1024 R13/CLRD70 NOSIG
  • 242300Z 14007KT CAVOK 04/02 Q1024 R13/CLRD70 NOSIG

TAF TAF UGSB
Valide du 25 à 00h jusqu'au 26 à 00h UTC


242300Z 2500/2524 13012KT CAVOK TX12/2511Z TN03/2502Z
BECMG 2507/2509 32007KT
BECMG 2517/2518 13010KT
FIR UGGG / Asie



MET'MAP, la Météo Aéronautique d'un coup d'oeil ! - Copyright ORBIFLY Décembre 2007 - Disclaimer

ORBIFLY MET'MAP TEAM :

Programmation & Développement : Alexandra Zaïnal
Conception & Développement : Baudouin d'Aumeries
Co-Programmation & Développement : Marc-Olivier Méhu
Soutien technique & logistique : Manuel Goepfert

Contact : metmap@orbifly.com




SOURCES & CREDITS :

   NOAA       Earth
Advisory